createdAt,value
2018-08-09T00:00:31.568Z,1009.5
2018-08-09T00:01:31.607Z,1009.45
2018-08-09T00:02:31.616Z,1009.47
2018-08-09T00:03:31.642Z,1009.47
2018-08-09T00:04:31.669Z,1009.44
2018-08-09T00:05:31.702Z,1009.45
2018-08-09T00:06:31.722Z,1009.45
2018-08-09T00:07:31.749Z,1009.43
2018-08-09T00:09:31.803Z,1009.48
2018-08-09T00:10:31.828Z,1009.48
2018-08-09T00:11:31.855Z,1009.48
2018-08-09T00:12:31.882Z,1009.49
2018-08-09T00:13:31.908Z,1009.49
2018-08-09T00:14:31.934Z,1009.45
2018-08-09T00:15:31.961Z,1009.44
2018-08-09T00:16:31.988Z,1009.46
2018-08-09T00:17:32.014Z,1009.45
2018-08-09T00:18:32.043Z,1009.46
2018-08-09T00:19:32.068Z,1009.45
2018-08-09T00:20:32.094Z,1009.48
2018-08-09T00:21:32.118Z,1009.47
2018-08-09T00:22:32.146Z,1009.43
2018-08-09T00:23:32.172Z,1009.44
2018-08-09T00:24:32.200Z,1009.44
2018-08-09T00:25:32.227Z,1009.44
2018-08-09T00:26:32.252Z,1009.44
2018-08-09T00:27:32.281Z,1009.42
2018-08-09T00:28:32.304Z,1009.42
2018-08-09T00:29:32.330Z,1009.47
2018-08-09T00:30:32.357Z,1009.48
2018-08-09T00:31:32.384Z,1009.45
2018-08-09T00:32:32.410Z,1009.5
2018-08-09T00:33:32.438Z,1009.5
2018-08-09T00:34:32.461Z,1009.49
2018-08-09T00:35:32.492Z,1009.53
2018-08-09T00:36:32.516Z,1009.55
2018-08-09T00:37:32.542Z,1009.57
2018-08-09T00:38:32.576Z,1009.58
2018-08-09T00:39:32.594Z,1009.6
2018-08-09T00:41:32.648Z,1009.61
2018-08-09T00:42:32.674Z,1009.57
2018-08-09T00:43:32.701Z,1009.57
2018-08-09T00:44:32.727Z,1009.61
2018-08-09T00:45:32.752Z,1009.63
2018-08-09T00:46:32.779Z,1009.64
2018-08-09T00:47:32.810Z,1009.66
2018-08-09T00:48:32.833Z,1009.64
2018-08-09T00:49:32.858Z,1009.66
2018-08-09T00:50:32.884Z,1009.66
2018-08-09T00:51:32.961Z,1009.69
2018-08-09T00:52:32.936Z,1009.68
2018-08-09T00:53:32.964Z,1009.71
2018-08-09T00:54:32.989Z,1009.7
2018-08-09T00:55:33.016Z,1009.73
2018-08-09T00:57:33.067Z,1009.73
2018-08-09T00:58:33.094Z,1009.74
2018-08-09T00:59:33.121Z,1009.79
2018-08-09T01:00:33.147Z,1009.75
2018-08-09T01:01:33.173Z,1009.84
2018-08-09T01:02:33.198Z,1009.88
2018-08-09T01:03:33.225Z,1009.87
2018-08-09T01:04:33.254Z,1009.89
2018-08-09T01:05:33.278Z,1009.92
2018-08-09T01:06:33.307Z,1009.91
2018-08-09T01:07:33.331Z,1009.93
2018-08-09T01:08:33.357Z,1009.98
2018-08-09T01:09:33.384Z,1010
2018-08-09T01:10:33.410Z,1010.05
2018-08-09T01:11:33.437Z,1010.07
2018-08-09T01:13:33.493Z,1010.08
2018-08-09T01:14:33.515Z,1010
2018-08-09T01:15:33.541Z,1010.04
2018-08-09T01:16:33.565Z,1009.96
2018-08-09T01:17:33.593Z,1009.95
2018-08-09T01:18:33.620Z,1009.98
2018-08-09T01:19:33.646Z,1010.01
2018-08-09T01:20:33.672Z,1010.05
2018-08-09T01:21:33.700Z,1010.05
2018-08-09T01:22:33.723Z,1010.06
2018-08-09T01:23:33.751Z,1010.05
2018-08-09T01:24:33.825Z,1009.99
2018-08-09T01:25:33.805Z,1010.03
2018-08-09T01:26:33.830Z,1009.99
2018-08-09T01:27:33.854Z,1010.03
2018-08-09T01:29:33.907Z,1010.08
2018-08-09T01:30:33.934Z,1010.11
2018-08-09T01:31:33.961Z,1010.14
2018-08-09T01:32:33.984Z,1010.19
2018-08-09T01:33:34.111Z,1010.22
2018-08-09T01:34:34.037Z,1010.15
2018-08-09T01:35:34.063Z,1010.17
2018-08-09T01:36:34.090Z,1010.15
2018-08-09T01:37:34.116Z,1010.16
2018-08-09T01:38:34.140Z,1010.21
2018-08-09T01:39:34.167Z,1010.22
2018-08-09T01:40:34.193Z,1010.23
2018-08-09T01:41:34.218Z,1010.28
2018-08-09T01:42:34.244Z,1010.28
2018-08-09T01:44:34.299Z,1010.28
2018-08-09T01:45:34.323Z,1010.36
2018-08-09T01:46:34.350Z,1010.36
2018-08-09T01:47:34.379Z,1010.31
2018-08-09T01:48:34.402Z,1010.34
2018-08-09T01:49:34.427Z,1010.34
2018-08-09T01:50:34.455Z,1010.35
2018-08-09T01:51:34.478Z,1010.34
2018-08-09T01:52:34.507Z,1010.36
2018-08-09T01:53:34.529Z,1010.32
2018-08-09T01:54:34.556Z,1010.29
2018-08-09T01:55:34.583Z,1010.38
2018-08-09T01:56:34.610Z,1010.32
2018-08-09T01:57:34.631Z,1010.41
2018-08-09T01:58:34.661Z,1010.33
2018-08-09T01:59:34.685Z,1010.38
2018-08-09T02:00:34.710Z,1010.36
2018-08-09T02:01:34.735Z,1010.36
2018-08-09T02:02:34.762Z,1010.35
2018-08-09T02:03:34.793Z,1010.39
2018-08-09T02:04:34.837Z,1010.35
2018-08-09T02:05:34.838Z,1010.35
2018-08-09T02:06:34.865Z,1010.35
2018-08-09T02:07:34.931Z,1010.35
2018-08-09T02:08:34.944Z,1010.38
2018-08-09T02:09:34.940Z,1010.44
2018-08-09T02:10:34.968Z,1010.44
2018-08-09T02:11:34.993Z,1010.42
2018-08-09T02:12:35.019Z,1010.43
2018-08-09T02:13:35.044Z,1010.45
2018-08-09T02:14:35.086Z,1010.4
2018-08-09T02:16:35.120Z,1010.42
2018-08-09T02:17:35.147Z,1010.42
2018-08-09T02:18:35.172Z,1010.43
2018-08-09T02:19:35.199Z,1010.47
2018-08-09T02:20:35.224Z,1010.5
2018-08-09T02:21:35.249Z,1010.45
2018-08-09T02:22:35.274Z,1010.48
2018-08-09T02:23:35.301Z,1010.48
2018-08-09T02:24:35.329Z,1010.47
2018-08-09T02:25:35.351Z,1010.47
2018-08-09T02:26:35.377Z,1010.5
2018-08-09T02:27:35.403Z,1010.48
2018-08-09T02:28:35.430Z,1010.49
2018-08-09T02:29:35.453Z,1010.48
2018-08-09T02:30:35.481Z,1010.53
2018-08-09T02:32:35.537Z,1010.61
2018-08-09T02:33:35.556Z,1010.57
2018-08-09T02:34:35.581Z,1010.61
2018-08-09T02:35:35.607Z,1010.6
2018-08-09T02:36:35.632Z,1010.64
2018-08-09T02:37:35.659Z,1010.6
2018-08-09T02:38:35.685Z,1010.64
2018-08-09T02:39:35.711Z,1010.63
2018-08-09T02:40:35.734Z,1010.65
2018-08-09T02:41:35.761Z,1010.67
2018-08-09T02:42:35.786Z,1010.68
2018-08-09T02:43:35.812Z,1010.67
2018-08-09T02:44:35.838Z,1010.72
2018-08-09T02:45:35.861Z,1010.73
2018-08-09T02:46:35.980Z,1010.74
2018-08-09T02:48:35.937Z,1010.71
2018-08-09T02:49:35.971Z,1010.71
2018-08-09T02:50:35.990Z,1010.69
2018-08-09T02:51:36.015Z,1010.73
2018-08-09T02:52:36.043Z,1010.73
2018-08-09T02:53:36.072Z,1010.75
2018-08-09T02:54:36.093Z,1010.79
2018-08-09T02:55:36.117Z,1010.8
2018-08-09T02:56:36.143Z,1010.8
2018-08-09T02:57:36.222Z,1010.81
2018-08-09T02:58:36.193Z,1010.88
2018-08-09T02:59:36.217Z,1010.87
2018-08-09T03:00:36.245Z,1010.89
2018-08-09T03:01:36.270Z,1010.9
2018-08-09T03:02:36.296Z,1010.84
2018-08-09T03:04:36.347Z,1010.86
2018-08-09T03:05:36.371Z,1010.84
2018-08-09T03:06:36.398Z,1010.83
2018-08-09T03:07:36.423Z,1010.8
2018-08-09T03:08:36.449Z,1010.77
2018-08-09T03:09:36.473Z,1010.72
2018-08-09T03:10:36.499Z,1010.75
2018-08-09T03:11:36.530Z,1010.75
2018-08-09T03:12:36.549Z,1010.74
2018-08-09T03:13:36.574Z,1010.75
2018-08-09T03:14:36.601Z,1010.75
2018-08-09T03:15:36.627Z,1010.8
2018-08-09T03:16:36.653Z,1010.81
2018-08-09T03:17:36.677Z,1010.86
2018-08-09T03:19:36.728Z,1010.86
2018-08-09T03:20:36.755Z,1010.86
2018-08-09T03:21:36.781Z,1010.86
2018-08-09T03:22:36.806Z,1010.89
2018-08-09T03:23:36.832Z,1010.86
2018-08-09T03:24:36.855Z,1010.82
2018-08-09T03:25:36.884Z,1010.86
2018-08-09T03:26:36.910Z,1010.84
2018-08-09T03:27:36.931Z,1010.83
2018-08-09T03:28:36.956Z,1010.85
2018-08-09T03:29:36.983Z,1010.86
2018-08-09T03:30:37.011Z,1010.88
2018-08-09T03:31:37.047Z,1010.89
2018-08-09T03:32:37.059Z,1010.87
2018-08-09T03:33:37.084Z,1010.92
2018-08-09T03:34:37.110Z,1010.89
2018-08-09T03:35:37.138Z,1010.92
2018-08-09T03:36:37.161Z,1010.91
2018-08-09T03:37:37.186Z,1010.98
2018-08-09T03:38:37.210Z,1011
2018-08-09T03:39:37.237Z,1010.96
2018-08-09T03:40:37.262Z,1010.99
2018-08-09T03:41:37.287Z,1011.02
2018-08-09T03:42:37.312Z,1011.03
2018-08-09T03:43:37.338Z,1011.02
2018-08-09T03:44:37.362Z,1011.02
2018-08-09T03:45:37.389Z,1011
2018-08-09T03:46:37.414Z,1011.02
2018-08-09T03:47:37.439Z,1011.03
2018-08-09T03:48:37.465Z,1011.03
2018-08-09T03:49:37.489Z,1011.03
2018-08-09T03:51:37.640Z,1011.01
2018-08-09T03:52:37.566Z,1011.11
2018-08-09T03:53:37.590Z,1011.08
2018-08-09T03:54:37.617Z,1011.11
2018-08-09T03:55:37.643Z,1011.12
2018-08-09T03:56:37.668Z,1011.12
2018-08-09T03:57:37.691Z,1011.16
2018-08-09T03:58:37.718Z,1011.09
2018-08-09T03:59:37.757Z,1011.09
2018-08-09T04:00:37.768Z,1011.09
2018-08-09T04:01:37.794Z,1011.11
2018-08-09T04:02:37.819Z,1011.04
2018-08-09T04:03:37.844Z,1011.06
2018-08-09T04:04:37.870Z,1011.06
2018-08-09T04:05:37.895Z,1011.03
2018-08-09T04:07:37.947Z,1011.07
2018-08-09T04:08:37.972Z,1011
2018-08-09T04:09:37.996Z,1011.03
2018-08-09T04:10:38.023Z,1011.06
2018-08-09T04:11:38.090Z,1011.05
2018-08-09T04:12:38.072Z,1011.04
2018-08-09T04:13:38.100Z,1011.06
2018-08-09T04:14:38.125Z,1011.05
2018-08-09T04:15:38.148Z,1011.07
2018-08-09T04:16:38.173Z,1011.05
2018-08-09T04:17:38.200Z,1011.1
2018-08-09T04:18:38.226Z,1011.1
2018-08-09T04:19:38.251Z,1011.13
2018-08-09T04:20:38.276Z,1011.13
2018-08-09T04:21:38.304Z,1011.11
2018-08-09T04:23:38.353Z,1011.08
2018-08-09T04:24:38.379Z,1011.11
2018-08-09T04:25:38.407Z,1011.12
2018-08-09T04:26:38.561Z,1011.11
2018-08-09T04:27:38.454Z,1011.11
2018-08-09T04:28:38.579Z,1011.14
2018-08-09T04:29:38.506Z,1011.1
2018-08-09T04:30:38.530Z,1011.12
2018-08-09T04:31:38.555Z,1011.14
2018-08-09T04:32:38.582Z,1011.09
2018-08-09T04:33:38.605Z,1011.18
2018-08-09T04:34:38.632Z,1011.15
2018-08-09T04:35:38.657Z,1011.14
2018-08-09T04:36:38.687Z,1011.15
2018-08-09T04:37:38.710Z,1011.15
2018-08-09T04:39:38.761Z,1011.2
2018-08-09T04:40:38.787Z,1011.17
2018-08-09T04:41:38.812Z,1011.19
2018-08-09T04:42:38.838Z,1011.2
2018-08-09T04:43:38.862Z,1011.2
2018-08-09T04:44:38.889Z,1011.2
2018-08-09T04:45:38.916Z,1011.23
2018-08-09T04:46:38.941Z,1011.2
2018-08-09T04:47:38.966Z,1011.25
2018-08-09T04:48:38.992Z,1011.24
2018-08-09T04:49:39.018Z,1011.13
2018-08-09T04:50:39.042Z,1011.2
2018-08-09T04:51:39.070Z,1011.23
2018-08-09T04:52:39.096Z,1011.19
2018-08-09T04:54:39.147Z,1011.28
2018-08-09T04:55:39.173Z,1011.21
2018-08-09T04:56:39.199Z,1011.28
2018-08-09T04:57:39.225Z,1011.23
2018-08-09T04:58:39.253Z,1011.24
2018-08-09T04:59:39.276Z,1011.29
2018-08-09T05:00:39.303Z,1011.38
2018-08-09T05:01:39.330Z,1011.44
2018-08-09T05:02:39.355Z,1011.46
2018-08-09T05:03:39.381Z,1011.48
2018-08-09T05:04:39.407Z,1011.48
2018-08-09T05:05:39.435Z,1011.48
2018-08-09T05:06:39.462Z,1011.49
2018-08-09T05:07:39.489Z,1011.49
2018-08-09T05:08:39.516Z,1011.48
2018-08-09T05:09:39.548Z,1011.49
2018-08-09T05:10:39.572Z,1011.53
2018-08-09T05:11:39.599Z,1011.53
2018-08-09T05:12:39.628Z,1011.62
2018-08-09T05:13:39.653Z,1011.62
2018-08-09T05:14:39.681Z,1011.63
2018-08-09T05:15:39.710Z,1011.58
2018-08-09T05:16:39.737Z,1011.61
2018-08-09T05:17:39.766Z,1011.66
2018-08-09T05:18:39.795Z,1011.56
2018-08-09T05:19:39.823Z,1011.58
2018-08-09T05:20:39.853Z,1011.64
2018-08-09T05:21:39.879Z,1011.63
2018-08-09T05:22:39.910Z,1011.65
2018-08-09T05:23:39.940Z,1011.64
2018-08-09T05:24:39.967Z,1011.65
2018-08-09T05:26:40.028Z,1011.72
2018-08-09T05:27:40.058Z,1011.72
2018-08-09T05:28:40.088Z,1011.76
2018-08-09T05:29:40.117Z,1011.79
2018-08-09T05:30:40.146Z,1011.81
2018-08-09T05:31:40.177Z,1011.84
2018-08-09T05:32:40.208Z,1011.78
2018-08-09T05:33:40.240Z,1011.76
2018-08-09T05:34:40.269Z,1011.79
2018-08-09T05:35:40.299Z,1011.75
2018-08-09T05:36:40.331Z,1011.76
2018-08-09T05:37:40.367Z,1011.75
2018-08-09T05:38:40.394Z,1011.79
2018-08-09T05:39:40.424Z,1011.77
2018-08-09T05:40:40.456Z,1011.77
2018-08-09T05:42:40.519Z,1011.78
2018-08-09T05:43:40.549Z,1011.78
2018-08-09T05:44:40.581Z,1011.75
2018-08-09T05:45:40.619Z,1011.72
2018-08-09T05:46:40.644Z,1011.75
2018-08-09T05:47:40.677Z,1011.71
2018-08-09T05:48:40.709Z,1011.71
2018-08-09T05:49:40.741Z,1011.72
2018-08-09T05:50:40.771Z,1011.78
2018-08-09T05:51:40.804Z,1011.8
2018-08-09T05:52:40.851Z,1011.82
2018-08-09T05:53:40.869Z,1011.87
2018-08-09T05:54:40.901Z,1011.87
2018-08-09T05:55:40.934Z,1011.9
2018-08-09T05:56:40.966Z,1011.96
2018-08-09T05:58:41.031Z,1011.94
2018-08-09T05:59:41.065Z,1011.98
2018-08-09T06:00:41.098Z,1012.01
2018-08-09T06:01:41.129Z,1012.04
2018-08-09T06:02:41.163Z,1012.08
2018-08-09T06:03:41.194Z,1012.06
2018-08-09T06:04:41.228Z,1012.08
2018-08-09T06:05:41.360Z,1012.12
2018-08-09T06:06:41.305Z,1012.12
2018-08-09T06:07:41.328Z,1012.16
2018-08-09T06:08:41.366Z,1012.15
2018-08-09T06:09:41.396Z,1012.15
2018-08-09T06:10:41.432Z,1012.19
2018-08-09T06:11:41.461Z,1012.17
2018-08-09T06:12:41.494Z,1012.22
2018-08-09T06:14:41.562Z,1012.28
2018-08-09T06:15:41.596Z,1012.28
2018-08-09T06:16:41.630Z,1012.31
2018-08-09T06:17:41.663Z,1012.32
2018-08-09T06:18:41.743Z,1012.29
2018-08-09T06:19:41.732Z,1012.33
2018-08-09T06:20:41.767Z,1012.34
2018-08-09T06:21:41.802Z,1012.3
2018-08-09T06:22:41.838Z,1012.33
2018-08-09T06:23:41.870Z,1012.27
2018-08-09T06:24:41.903Z,1012.35
2018-08-09T06:25:41.938Z,1012.39
2018-08-09T06:26:42.028Z,1012.42
2018-08-09T06:27:42.008Z,1012.39
2018-08-09T06:29:42.077Z,1012.48
2018-08-09T06:30:42.112Z,1012.49
2018-08-09T06:31:42.146Z,1012.53
2018-08-09T06:32:42.179Z,1012.58
2018-08-09T06:33:42.220Z,1012.62
2018-08-09T06:34:42.249Z,1012.55
2018-08-09T06:35:42.285Z,1012.57
2018-08-09T06:36:42.318Z,1012.62
2018-08-09T06:37:42.357Z,1012.59
2018-08-09T06:38:42.389Z,1012.7
2018-08-09T06:39:42.423Z,1012.7
2018-08-09T06:40:42.458Z,1012.7
2018-08-09T06:41:42.492Z,1012.66
2018-08-09T06:42:42.527Z,1012.75
2018-08-09T06:43:42.561Z,1012.77
2018-08-09T06:44:42.601Z,1012.75
2018-08-09T06:45:42.638Z,1012.78
2018-08-09T06:46:42.666Z,1012.85
2018-08-09T06:47:42.717Z,1012.81
2018-08-09T06:48:42.734Z,1012.84
2018-08-09T06:49:42.770Z,1012.88
2018-08-09T06:50:42.811Z,1012.89
2018-08-09T06:51:42.842Z,1012.94
2018-08-09T06:52:42.873Z,1012.96
2018-08-09T06:53:42.913Z,1012.95
2018-08-09T06:54:42.946Z,1013.02
2018-08-09T06:55:42.980Z,1012.95
2018-08-09T06:56:43.015Z,1013.03
2018-08-09T06:57:43.054Z,1013.03
2018-08-09T06:58:43.085Z,1012.97
2018-08-09T06:59:43.120Z,1013.06
2018-08-09T07:01:43.190Z,1012.84
2018-08-09T07:02:43.225Z,1012.56
2018-08-09T07:03:43.258Z,1012.34
2018-08-09T07:04:43.295Z,1012.26
2018-08-09T07:05:43.330Z,1012.29
2018-08-09T07:06:43.366Z,1012.31
2018-08-09T07:07:43.400Z,1012.41
2018-08-09T07:08:43.435Z,1012.38
2018-08-09T07:09:43.471Z,1012.42
2018-08-09T07:10:43.506Z,1012.41
2018-08-09T07:11:43.541Z,1012.4
2018-08-09T07:12:43.607Z,1012.44
2018-08-09T07:13:43.612Z,1012.4
2018-08-09T07:14:43.647Z,1012.5
2018-08-09T07:15:43.683Z,1012.42
2018-08-09T07:17:43.754Z,1012.46
2018-08-09T07:18:43.788Z,1012.46
2018-08-09T07:19:43.824Z,1012.51
2018-08-09T07:20:43.860Z,1012.49
2018-08-09T07:21:43.894Z,1012.44
2018-08-09T07:22:43.931Z,1012.46
2018-08-09T07:23:43.966Z,1012.5
2018-08-09T07:24:44.001Z,1012.54
2018-08-09T07:25:44.041Z,1012.46
2018-08-09T07:26:44.075Z,1012.41
2018-08-09T07:27:44.107Z,1012.56
2018-08-09T07:28:44.145Z,1012.68
2018-08-09T07:29:44.177Z,1012.83
2018-08-09T07:30:44.213Z,1012.76
2018-08-09T07:31:44.248Z,1012.76
2018-08-09T07:33:44.330Z,1012.73
2018-08-09T07:34:44.354Z,1012.69
2018-08-09T07:35:44.390Z,1012.67
2018-08-09T07:36:44.425Z,1012.67
2018-08-09T07:37:44.459Z,1012.64
2018-08-09T07:38:44.495Z,1012.58
2018-08-09T07:39:44.580Z,1012.57
2018-08-09T07:40:44.566Z,1012.5
2018-08-09T07:41:44.601Z,1012.5
2018-08-09T07:42:44.636Z,1012.55
2018-08-09T07:43:44.672Z,1012.55
2018-08-09T07:44:44.711Z,1012.53
2018-08-09T07:45:44.743Z,1012.55
2018-08-09T07:46:44.779Z,1012.57
2018-08-09T07:47:44.818Z,1012.55
2018-08-09T07:49:44.884Z,1012.54
2018-08-09T07:50:44.924Z,1012.49
2018-08-09T07:51:44.957Z,1012.44
2018-08-09T07:52:44.993Z,1012.54
2018-08-09T07:53:45.029Z,1012.49
2018-08-09T07:54:45.065Z,1012.53
2018-08-09T07:55:45.101Z,1012.49
2018-08-09T07:56:45.136Z,1012.51
2018-08-09T07:57:45.175Z,1012.46
2018-08-09T07:58:45.210Z,1012.45
2018-08-09T07:59:45.245Z,1012.4
2018-08-09T08:00:45.281Z,1012.44
2018-08-09T08:01:45.316Z,1012.47
2018-08-09T08:02:45.358Z,1012.44
2018-08-09T08:04:45.426Z,1012.48
2018-08-09T08:05:45.483Z,1012.47
2018-08-09T08:06:45.492Z,1012.49
2018-08-09T08:07:45.529Z,1012.44
2018-08-09T08:08:45.565Z,1012.41
2018-08-09T08:09:45.610Z,1012.4
2018-08-09T08:10:45.635Z,1012.36
2018-08-09T08:11:45.671Z,1012.37
2018-08-09T08:12:45.706Z,1012.31
2018-08-09T08:13:45.742Z,1012.32
2018-08-09T08:14:45.778Z,1012.36
2018-08-09T08:15:45.816Z,1012.33
2018-08-09T08:16:45.847Z,1012.34
2018-08-09T08:17:45.885Z,1012.29
2018-08-09T08:18:45.920Z,1012.25
2018-08-09T08:19:45.962Z,1012.19
2018-08-09T08:20:46.034Z,1012.2
2018-08-09T08:21:46.028Z,1012.18
2018-08-09T08:22:46.063Z,1012.18
2018-08-09T08:23:46.098Z,1012.12
2018-08-09T08:24:46.134Z,1012.09
2018-08-09T08:25:46.171Z,1012.15
2018-08-09T08:26:46.267Z,1012.17
2018-08-09T08:27:46.243Z,1012.22
2018-08-09T08:28:46.277Z,1012.23
2018-08-09T08:29:46.313Z,1012.3
2018-08-09T08:30:46.350Z,1012.25
2018-08-09T08:31:46.385Z,1012.26
2018-08-09T08:32:46.421Z,1012.3
2018-08-09T08:33:46.458Z,1012.29
2018-08-09T08:34:46.493Z,1012.29
2018-08-09T08:36:46.565Z,1012.28
2018-08-09T08:37:46.601Z,1012.31
2018-08-09T08:38:46.636Z,1012.32
2018-08-09T08:39:46.672Z,1012.29
2018-08-09T08:40:46.708Z,1012.17
2018-08-09T08:41:46.993Z,1012.05
2018-08-09T08:42:46.779Z,1012.02
2018-08-09T08:43:46.814Z,1011.97
2018-08-09T08:44:46.850Z,1011.98
2018-08-09T08:45:46.887Z,1011.97
2018-08-09T08:46:46.926Z,1011.96
2018-08-09T08:47:46.962Z,1011.97
2018-08-09T08:48:46.994Z,1011.98
2018-08-09T08:49:47.034Z,1011.91
2018-08-09T08:50:47.066Z,1011.9
2018-08-09T08:52:47.139Z,1011.94
2018-08-09T08:53:47.174Z,1011.93
2018-08-09T08:54:47.210Z,1011.91
2018-08-09T08:55:47.245Z,1011.89
2018-08-09T08:56:47.281Z,1011.9
2018-08-09T08:57:47.317Z,1011.84
2018-08-09T08:58:47.353Z,1011.85
2018-08-09T08:59:47.389Z,1011.86
2018-08-09T09:00:47.454Z,1011.81
2018-08-09T09:01:47.460Z,1011.83
2018-08-09T09:02:47.496Z,1011.86
2018-08-09T09:03:47.532Z,1011.8
2018-08-09T09:04:47.567Z,1011.77
2018-08-09T09:05:47.605Z,1011.76
2018-08-09T09:06:47.639Z,1011.73
2018-08-09T09:08:47.717Z,1011.7
2018-08-09T09:09:47.745Z,1011.63
2018-08-09T09:10:47.782Z,1011.63
2018-08-09T09:11:47.816Z,1011.57
2018-08-09T09:12:47.856Z,1011.56
2018-08-09T09:13:47.900Z,1011.57
2018-08-09T09:14:47.924Z,1011.54
2018-08-09T09:15:47.960Z,1011.54
2018-08-09T09:16:47.996Z,1011.55
2018-08-09T09:17:48.030Z,1011.55
2018-08-09T09:18:48.065Z,1011.54
2018-08-09T09:19:48.100Z,1011.51
2018-08-09T09:20:48.136Z,1011.51
2018-08-09T09:21:48.171Z,1011.48
2018-08-09T09:22:48.206Z,1011.46
2018-08-09T09:24:48.276Z,1011.42
2018-08-09T09:25:48.312Z,1011.39
2018-08-09T09:27:48.382Z,1011.34
2018-08-09T09:28:48.417Z,1011.35
2018-08-09T09:29:48.553Z,1011.38
2018-08-09T09:30:48.488Z,1011.35
2018-08-09T09:31:48.523Z,1011.35
2018-08-09T09:32:48.560Z,1011.29
2018-08-09T09:33:48.592Z,1011.31
2018-08-09T09:34:48.636Z,1011.26
2018-08-09T09:35:48.666Z,1011.27
2018-08-09T09:36:48.699Z,1011.21
2018-08-09T09:37:48.732Z,1011.22
2018-08-09T09:39:48.805Z,1011.22
2018-08-09T09:40:48.842Z,1011.21
2018-08-09T09:41:48.875Z,1011.27
2018-08-09T09:42:48.909Z,1011.24
2018-08-09T09:43:48.946Z,1011.26
2018-08-09T09:44:48.978Z,1011.24
2018-08-09T09:45:49.015Z,1011.2
2018-08-09T09:46:49.050Z,1011.2
2018-08-09T09:47:49.086Z,1011.2
2018-08-09T09:48:49.119Z,1011.22
2018-08-09T09:49:49.189Z,1011.2
2018-08-09T09:50:49.190Z,1011.19
2018-08-09T09:51:49.227Z,1011.18
2018-08-09T09:52:49.260Z,1011.15
2018-08-09T09:53:49.294Z,1011.09
2018-08-09T09:54:49.343Z,1011.11
2018-08-09T09:55:49.364Z,1011.07
2018-08-09T09:56:49.399Z,1011.09
2018-08-09T09:57:49.434Z,1011.08
2018-08-09T09:58:49.470Z,1011.04
2018-08-09T09:59:49.503Z,1011.03
2018-08-09T10:00:49.540Z,1010.96
2018-08-09T10:01:49.637Z,1010.99
2018-08-09T10:02:49.607Z,1010.97
2018-08-09T10:03:49.642Z,1010.94
2018-08-09T10:04:49.675Z,1010.93
2018-08-09T10:05:49.713Z,1010.92
2018-08-09T10:06:49.744Z,1010.94
2018-08-09T10:07:49.780Z,1010.9
2018-08-09T10:08:49.815Z,1010.89
2018-08-09T10:09:49.848Z,1010.83
2018-08-09T10:11:49.918Z,1010.83
2018-08-09T10:12:50.010Z,1010.78
2018-08-09T10:13:49.985Z,1010.74
2018-08-09T10:14:50.042Z,1010.75
2018-08-09T10:15:50.056Z,1010.74
2018-08-09T10:16:50.091Z,1010.77
2018-08-09T10:17:50.124Z,1010.75
2018-08-09T10:18:50.158Z,1010.75
2018-08-09T10:19:50.219Z,1010.74
2018-08-09T10:20:50.227Z,1010.73
2018-08-09T10:21:50.262Z,1010.69
2018-08-09T10:22:50.297Z,1010.67
2018-08-09T10:23:50.330Z,1010.63
2018-08-09T10:24:50.364Z,1010.64
2018-08-09T10:25:50.399Z,1010.61
2018-08-09T10:27:50.466Z,1010.55
2018-08-09T10:28:50.504Z,1010.52
2018-08-09T10:29:50.563Z,1010.51
2018-08-09T10:30:50.569Z,1010.51
2018-08-09T10:31:50.603Z,1010.49
2018-08-09T10:32:50.638Z,1010.47
2018-08-09T10:33:50.672Z,1010.46
2018-08-09T10:34:50.706Z,1010.44
2018-08-09T10:35:50.740Z,1010.43
2018-08-09T10:36:50.774Z,1010.47
2018-08-09T10:37:50.808Z,1010.47
2018-08-09T10:38:50.842Z,1010.48
2018-08-09T10:39:50.880Z,1010.56
2018-08-09T10:40:50.910Z,1010.52
2018-08-09T10:41:50.944Z,1010.47
2018-08-09T10:43:51.011Z,1010.48
2018-08-09T10:44:51.045Z,1010.43
2018-08-09T10:45:51.081Z,1010.46
2018-08-09T10:46:51.113Z,1010.42
2018-08-09T10:47:51.148Z,1010.38
2018-08-09T10:48:51.196Z,1010.35
2018-08-09T10:49:51.215Z,1010.36
2018-08-09T10:50:51.248Z,1010.38
2018-08-09T10:51:51.282Z,1010.33
2018-08-09T10:52:51.314Z,1010.26
2018-08-09T10:53:51.347Z,1010.3
2018-08-09T10:54:51.382Z,1010.25
2018-08-09T10:55:51.416Z,1010.34
2018-08-09T10:56:51.450Z,1010.26
2018-08-09T10:57:51.485Z,1010.21
2018-08-09T10:59:51.549Z,1010.2
2018-08-09T11:00:51.583Z,1010.2
2018-08-09T11:01:51.657Z,1010.18
2018-08-09T11:02:51.649Z,1010.14
2018-08-09T11:03:51.685Z,1010.14
2018-08-09T11:04:51.714Z,1010.13
2018-08-09T11:05:51.748Z,1010.15
2018-08-09T11:06:51.781Z,1010.13
2018-08-09T11:07:51.816Z,1010.09
2018-08-09T11:08:51.847Z,1010.07
2018-08-09T11:09:51.882Z,1010.04
2018-08-09T11:10:51.914Z,1010.07
2018-08-09T11:11:51.948Z,1010.05
2018-08-09T11:12:51.980Z,1010.02
2018-08-09T11:14:52.048Z,1009.99
2018-08-09T11:15:52.081Z,1010
2018-08-09T11:16:52.126Z,1009.98
2018-08-09T11:17:52.145Z,1009.97
2018-08-09T11:18:52.177Z,1009.93
2018-08-09T11:19:52.210Z,1009.9
2018-08-09T11:20:52.243Z,1009.89
2018-08-09T11:21:52.276Z,1009.84
2018-08-09T11:22:52.312Z,1009.85
2018-08-09T11:23:52.344Z,1009.79
2018-08-09T11:24:52.375Z,1009.84
2018-08-09T11:25:52.410Z,1009.76
2018-08-09T11:26:52.444Z,1009.82
2018-08-09T11:27:52.472Z,1009.82
2018-08-09T11:28:52.504Z,1009.77
2018-08-09T11:29:52.547Z,1009.76
2018-08-09T11:30:52.569Z,1009.76
2018-08-09T11:31:52.601Z,1009.72
2018-08-09T11:32:52.634Z,1009.72
2018-08-09T11:33:52.666Z,1009.63
2018-08-09T11:34:52.698Z,1009.65
2018-08-09T11:35:52.731Z,1009.62
2018-08-09T11:36:52.764Z,1009.58
2018-08-09T11:37:52.795Z,1009.6
2018-08-09T11:38:52.828Z,1009.54
2018-08-09T11:39:52.884Z,1009.49
2018-08-09T11:40:52.893Z,1009.47
2018-08-09T11:41:52.924Z,1009.44
2018-08-09T11:42:52.960Z,1009.43
2018-08-09T11:43:53.002Z,1009.46
2018-08-09T11:44:53.021Z,1009.48
2018-08-09T11:46:53.085Z,1009.42
2018-08-09T11:47:53.124Z,1009.46
2018-08-09T11:48:53.149Z,1009.5
2018-08-09T11:49:53.180Z,1009.43
2018-08-09T11:50:53.213Z,1009.41
2018-08-09T11:51:53.246Z,1009.37
2018-08-09T11:52:53.278Z,1009.3
2018-08-09T11:53:53.311Z,1009.32
2018-08-09T11:54:53.342Z,1009.26
2018-08-09T11:55:53.372Z,1009.3
2018-08-09T11:56:53.472Z,1009.27
2018-08-09T11:57:53.438Z,1009.28
2018-08-09T11:58:53.470Z,1009.26
2018-08-09T11:59:53.501Z,1009.28
2018-08-09T12:00:53.532Z,1009.22
2018-08-09T12:02:53.598Z,1009.2
2018-08-09T12:03:53.629Z,1009.1
2018-08-09T12:04:53.661Z,1009.13
2018-08-09T12:05:53.693Z,1009.15
2018-08-09T12:06:53.724Z,1009.15
2018-08-09T12:07:53.757Z,1009.14
2018-08-09T12:08:53.788Z,1009.1
2018-08-09T12:09:53.821Z,1009.05
2018-08-09T12:10:53.852Z,1009.05
2018-08-09T12:11:53.884Z,1009.04
2018-08-09T12:12:53.916Z,1009.06
2018-08-09T12:13:53.957Z,1009.08
2018-08-09T12:14:53.996Z,1009.08
2018-08-09T12:15:54.012Z,1009.09
2018-08-09T12:16:54.044Z,1009.05
2018-08-09T12:18:54.106Z,1009.06
2018-08-09T12:19:54.139Z,1009.05
2018-08-09T12:20:54.242Z,1008.98
2018-08-09T12:21:54.202Z,1008.98
2018-08-09T12:22:54.234Z,1008.94
2018-08-09T12:23:54.266Z,1008.93
2018-08-09T12:24:54.299Z,1008.9
2018-08-09T12:25:54.328Z,1008.9
2018-08-09T12:26:54.407Z,1008.86
2018-08-09T12:27:54.393Z,1008.78
2018-08-09T12:28:54.423Z,1008.78
2018-08-09T12:29:54.456Z,1008.81
2018-08-09T12:30:54.488Z,1008.8
2018-08-09T12:31:54.565Z,1008.81
2018-08-09T12:32:54.550Z,1008.72
2018-08-09T12:34:54.614Z,1008.73
2018-08-09T12:35:54.646Z,1008.68
2018-08-09T12:36:54.676Z,1008.71
2018-08-09T12:37:54.711Z,1008.63
2018-08-09T12:38:54.741Z,1008.64
2018-08-09T12:39:54.772Z,1008.61
2018-08-09T12:40:54.803Z,1008.66
2018-08-09T12:41:54.835Z,1008.68
2018-08-09T12:42:54.868Z,1008.62
2018-08-09T12:43:54.899Z,1008.63
2018-08-09T12:44:54.931Z,1008.6
2018-08-09T12:45:54.966Z,1008.56
2018-08-09T12:46:54.995Z,1008.59
2018-08-09T12:47:55.028Z,1008.56
2018-08-09T12:49:55.091Z,1008.56
2018-08-09T12:50:55.123Z,1008.54